Terminal Aerodrome Forecast
Issued by NWS Wilmington, NC

Home | Current Version | Previous Version | Text Only | Print | Product List | Glossary On
Versions: 1 2 3 4 5 6 7 8 9 10 11 12 13 14 15 16 17 18 19 20 21 22 23 24
000
FTUS42 KILM 201120
TAFLBT
TAF
KLBT 201120Z 2012/2112 23008KT P6SM SCT008
     FM201500 24015G24KT P6SM SCT045
     FM202200 23012G35KT 5SM TSRA BKN050CB
     FM210000 22013G20KT P6SM VCTS BKN050CB
     FM210200 25011KT P6SM VCSH BKN090 BKN140
     FM210800 27005KT P6SM SKC
     AMD NOT SKED=

USA.gov is the U.S. government's official web portal to all federal, state and local government web resources and services.